Pagina principale
METAR-TAF:

METAR-TAF

Aeroporti :

Mardin, Turchia

latitudine: 37-13-58N, longitudine: 40-38-26E, altezza: 527 m

Osservazione

Il bollettino è stato emesso 44 minuti fa, alle 11:50 UTC
Vento 10 kt da nord/nord-ovest, variando fra ovest e nord-est
Temperature 43°C
Umidità 11%
Pressione 1007 hPa
Visibilità 10 km o più
nessuna nube inferiore a 1500 m e nessun cumulonembo

METAR: LTCR 261150Z 33010KT 280V040 CAVOK 43/06 Q1007

Ora: 15:34 (12:34 UTC)

Previsione

Il bollettino è stato emesso 1 ora e 54 minuti fa, alle 10:40 UTC
Previsione valida dal 26 alle 12 UTC al 26 alle 21 UTC
Vento 2 kt da direzioni variabili
Visibilità 10 km o più
nessuna nube inferiore a 1500 m e nessun cumulonembo

TAF: LTCR 261040Z 2612/2621 VRB02KT CAVOK

Osservazioni e previsioni meteorologiche di più di 4000 aeroporti (messaggi METAR e TAF).

Le stazioni disponibili sono rappresentate dai dischi gialli e rossi sulla carta.

Puntare il mouse per vedere il nome della stazione.

Clicca sopra per visualizzare le osservazioni e previsioni meteorologiche.

Per cambiare la mappa : fare clic sui pulsanti verdi con una croce nera per ingrandire, il pulsante verde con un trattino per diminuire, o sulla freccia verde per le mappe adiacenti.


METAR-TAF: